createdAt,value
2022-09-17T00:02:03.223Z,12.90
2022-09-17T00:07:05.293Z,12.70
2022-09-17T00:12:07.237Z,10.70
2022-09-17T00:17:08.977Z,12.40
2022-09-17T00:22:30.445Z,12.40
2022-09-17T00:27:34.219Z,10.60
2022-09-17T00:32:35.968Z,12.40
2022-09-17T00:37:37.852Z,13.30
2022-09-17T00:42:39.616Z,11.80
2022-09-17T00:47:58.689Z,34.50
2022-09-17T00:53:20.763Z,16.40
2022-09-17T00:58:23.475Z,12.70
2022-09-17T01:03:37.631Z,11.10
2022-09-17T01:09:08.470Z,9.50
2022-09-17T01:14:57.336Z,10.00
2022-09-17T01:20:23.092Z,14.80
2022-09-17T01:25:38.293Z,11.10
2022-09-17T01:30:51.979Z,9.60
2022-09-17T01:36:17.878Z,10.10
2022-09-17T01:41:38.633Z,11.90
2022-09-17T01:46:46.650Z,11.60
2022-09-17T01:51:53.150Z,11.10
2022-09-17T01:57:02.112Z,10.50
2022-09-17T02:02:32.805Z,10.70
2022-09-17T02:07:42.391Z,10.50
2022-09-17T02:12:50.006Z,10.60
2022-09-17T02:17:58.918Z,10.60
2022-09-17T02:23:08.651Z,10.30
2022-09-17T02:28:41.587Z,10.10
2022-09-17T02:33:55.935Z,10.30
2022-09-17T02:39:01.827Z,11.00
2022-09-17T02:44:18.630Z,10.00
2022-09-17T02:50:00.346Z,11.30
2022-09-17T02:55:43.205Z,10.30
2022-09-17T03:00:46.506Z,11.30
2022-09-17T03:05:49.520Z,11.20
2022-09-17T03:10:51.395Z,11.30
2022-09-17T03:16:06.585Z,11.90
2022-09-17T03:21:12.665Z,12.00
2022-09-17T03:26:14.596Z,11.30
2022-09-17T03:31:16.469Z,13.60
2022-09-17T03:36:19.574Z,18.40
2022-09-17T03:41:21.603Z,16.10
2022-09-17T03:46:23.386Z,16.00
2022-09-17T03:51:25.560Z,14.80
2022-09-17T03:56:27.333Z,14.90
2022-09-17T04:01:29.377Z,12.90
2022-09-17T04:06:31.583Z,13.40
2022-09-17T04:11:33.565Z,13.40
2022-09-17T04:16:35.613Z,14.00
2022-09-17T04:21:37.461Z,14.20
2022-09-17T04:26:39.272Z,13.50
2022-09-17T04:31:41.166Z,13.90
2022-09-17T04:36:42.918Z,14.20
2022-09-17T04:41:44.641Z,13.40
2022-09-17T04:46:46.477Z,17.80
2022-09-17T04:51:48.381Z,14.90
2022-09-17T04:56:50.528Z,15.20
2022-09-17T05:01:52.350Z,14.50
2022-09-17T05:06:54.170Z,14.10
2022-09-17T05:12:12.048Z,12.60
2022-09-17T05:22:21.432Z,11.60
2022-09-17T05:27:23.510Z,12.20
2022-09-17T05:32:25.536Z,12.00
2022-09-17T05:37:27.237Z,12.60
2022-09-17T05:42:29.475Z,12.40
2022-09-17T05:47:31.224Z,11.30
2022-09-17T05:52:33.247Z,10.80
2022-09-17T05:57:35.023Z,10.60
2022-09-17T06:02:37.231Z,10.40
2022-09-17T06:07:39.254Z,11.60
2022-09-17T06:12:40.914Z,10.80
2022-09-17T06:17:43.551Z,10.00
2022-09-17T06:22:45.593Z,9.70
2022-09-17T06:27:47.417Z,9.60
2022-09-17T06:32:49.878Z,8.60
2022-09-17T06:38:11.448Z,7.60
2022-09-17T06:43:21.829Z,7.50
2022-09-17T06:48:24.715Z,6.90
2022-09-17T06:53:26.418Z,6.50
2022-09-17T06:58:30.025Z,6.50
2022-09-17T07:03:35.889Z,5.00
2022-09-17T07:08:38.476Z,5.40
2022-09-17T07:13:40.352Z,5.00
2022-09-17T07:18:42.235Z,5.10
2022-09-17T07:23:44.781Z,4.30
2022-09-17T07:29:06.429Z,4.30
2022-09-17T07:34:22.146Z,3.80
2022-09-17T07:39:23.842Z,3.60
2022-09-17T07:44:30.266Z,3.80
2022-09-17T07:49:32.304Z,3.30
2022-09-17T07:54:34.573Z,3.60
2022-09-17T07:59:36.667Z,3.10
2022-09-17T08:04:38.552Z,2.70
2022-09-17T08:09:59.272Z,2.80
2022-09-17T08:15:01.612Z,3.00
2022-09-17T08:20:03.617Z,2.70
2022-09-17T08:25:06.750Z,3.10
2022-09-17T08:30:09.339Z,2.50
2022-09-17T08:35:11.961Z,2.70
2022-09-17T08:40:21.321Z,2.80
2022-09-17T08:45:34.888Z,2.40
2022-09-17T08:50:42.067Z,3.20
2022-09-17T08:56:00.912Z,2.40
2022-09-17T09:01:23.961Z,2.40
2022-09-17T09:06:32.926Z,2.30
2022-09-17T09:11:41.569Z,3.30
2022-09-17T09:16:56.722Z,2.80
2022-09-17T09:22:26.120Z,3.40
2022-09-17T09:27:29.455Z,2.40
2022-09-17T09:32:40.383Z,2.90
2022-09-17T09:38:14.100Z,2.70
2022-09-17T09:44:03.683Z,2.50
2022-09-17T09:49:50.227Z,2.60
2022-09-17T09:55:01.080Z,2.60
2022-09-17T10:00:38.861Z,3.00
2022-09-17T10:05:59.217Z,2.90
2022-09-17T10:11:16.968Z,3.20
2022-09-17T10:16:21.744Z,3.10
2022-09-17T10:21:32.565Z,2.90
2022-09-17T10:26:37.110Z,2.90
2022-09-17T10:31:55.021Z,2.80
2022-09-17T10:36:58.564Z,3.10
2022-09-17T10:42:22.120Z,3.50
2022-09-17T10:47:30.533Z,3.60
2022-09-17T10:52:34.475Z,3.30
2022-09-17T10:58:10.344Z,3.20
2022-09-17T11:03:43.770Z,3.40
2022-09-17T11:09:16.231Z,3.90
2022-09-17T11:14:49.530Z,3.70
2022-09-17T11:20:39.965Z,3.30
2022-09-17T11:25:57.150Z,3.50
2022-09-17T11:31:39.844Z,4.30
2022-09-17T11:37:00.379Z,4.40
2022-09-17T11:42:07.857Z,4.30
2022-09-17T11:47:17.400Z,5.20
2022-09-17T11:52:25.788Z,4.00
2022-09-17T11:57:35.341Z,4.10
2022-09-17T12:03:06.876Z,5.60
2022-09-17T12:08:24.074Z,4.80
2022-09-17T12:13:51.106Z,4.50
2022-09-17T12:19:01.103Z,4.00
2022-09-17T12:24:28.672Z,4.50
2022-09-17T12:29:45.784Z,4.40
2022-09-17T12:35:15.073Z,4.10
2022-09-17T12:40:36.123Z,3.20
2022-09-17T12:45:50.442Z,3.20
2022-09-17T12:51:27.800Z,3.40
2022-09-17T12:56:51.111Z,3.70
2022-09-17T13:02:05.326Z,3.60
2022-09-17T13:07:26.234Z,3.70
2022-09-17T13:12:33.710Z,4.80
2022-09-17T13:18:31.396Z,4.50
2022-09-17T13:23:43.913Z,5.10
2022-09-17T13:28:52.514Z,4.30
2022-09-17T13:33:57.495Z,4.80
2022-09-17T13:39:01.712Z,4.20
2022-09-17T13:44:06.178Z,7.80
2022-09-17T13:49:16.939Z,3.70
2022-09-17T13:54:21.311Z,6.10
2022-09-17T13:59:27.930Z,3.40
2022-09-17T14:04:41.845Z,3.40
2022-09-17T14:09:50.339Z,3.00
2022-09-17T14:14:52.743Z,3.30
2022-09-17T14:19:55.521Z,3.80
2022-09-17T14:24:58.423Z,3.30
2022-09-17T14:30:12.934Z,3.40
2022-09-17T14:35:20.611Z,4.30
2022-09-17T14:40:59.423Z,4.30
2022-09-17T14:46:07.063Z,4.50
2022-09-17T14:51:42.426Z,3.90
2022-09-17T14:57:09.798Z,5.00
2022-09-17T15:02:33.282Z,4.60
2022-09-17T15:07:35.373Z,4.80
2022-09-17T15:12:38.967Z,4.30
2022-09-17T15:17:42.382Z,5.10
2022-09-17T15:22:50.099Z,4.80
2022-09-17T15:27:57.114Z,4.20
2022-09-17T15:33:00.167Z,4.70
2022-09-17T15:38:23.676Z,5.40
2022-09-17T15:43:31.621Z,6.00
2022-09-17T15:48:37.108Z,6.10
2022-09-17T15:53:39.019Z,6.40
2022-09-17T15:58:40.757Z,5.50
2022-09-17T16:03:45.651Z,6.40
2022-09-17T16:08:56.086Z,7.70
2022-09-17T16:14:00.336Z,6.10
2022-09-17T16:19:03.678Z,6.60
2022-09-17T16:24:25.396Z,7.90
2022-09-17T16:29:31.308Z,7.50
2022-09-17T16:34:33.429Z,7.00
2022-09-17T16:39:35.278Z,7.40
2022-09-17T16:44:37.224Z,8.90
2022-09-17T16:49:39.062Z,10.30
2022-09-17T16:54:40.961Z,8.30
2022-09-17T16:59:42.658Z,9.60
2022-09-17T17:04:44.398Z,10.40
2022-09-17T17:09:46.428Z,10.40
2022-09-17T17:14:50.165Z,9.70
2022-09-17T17:19:53.076Z,11.70
2022-09-17T17:24:55.285Z,23.70
2022-09-17T17:29:57.008Z,8.20
2022-09-17T17:34:58.848Z,8.10
2022-09-17T17:40:01.901Z,9.30
2022-09-17T17:45:05.985Z,9.10
2022-09-17T17:50:16.059Z,5.20
2022-09-17T17:55:17.957Z,5.50
2022-09-17T18:00:40.415Z,5.10
2022-09-17T18:05:58.991Z,7.20
2022-09-17T18:11:04.187Z,7.00
2022-09-17T18:16:12.110Z,8.30
2022-09-17T18:21:21.972Z,8.60
2022-09-17T18:26:28.011Z,9.90
2022-09-17T18:31:32.000Z,10.10
2022-09-17T18:36:36.409Z,8.70
2022-09-17T18:41:40.744Z,7.20
2022-09-17T18:46:43.088Z,8.40
2022-09-17T18:51:44.954Z,8.30
2022-09-17T18:56:46.733Z,8.00
2022-09-17T19:01:49.497Z,7.70
2022-09-17T19:07:11.533Z,10.10
2022-09-17T19:12:23.856Z,8.30
2022-09-17T19:17:26.294Z,7.00
2022-09-17T19:22:42.430Z,7.40
2022-09-17T19:27:54.155Z,6.80
2022-09-17T19:32:56.025Z,6.00
2022-09-17T19:37:58.945Z,6.10
2022-09-17T19:43:03.381Z,5.20
2022-09-17T19:48:05.117Z,4.60
2022-09-17T19:53:06.844Z,3.70
2022-09-17T19:58:08.633Z,3.50
2022-09-17T20:03:10.933Z,3.90
2022-09-17T20:08:12.698Z,4.40
2022-09-17T20:13:17.341Z,4.80
2022-09-17T20:18:23.289Z,4.20
2022-09-17T20:23:31.078Z,3.80
2022-09-17T20:28:37.588Z,3.70
2022-09-17T20:33:40.110Z,3.20
2022-09-17T20:39:11.491Z,2.40
2022-09-17T20:44:06.630Z,3.40
2022-09-17T20:49:08.634Z,3.60
2022-09-17T20:54:10.672Z,2.80
2022-09-17T20:59:21.384Z,3.60
2022-09-17T21:04:24.217Z,3.00
2022-09-17T21:09:26.076Z,3.90
2022-09-17T21:14:27.965Z,3.60
2022-09-17T21:19:29.856Z,4.60
2022-09-17T21:24:31.632Z,3.80
2022-09-17T21:29:33.552Z,5.20
2022-09-17T21:34:35.277Z,5.20
2022-09-17T21:39:37.334Z,3.70
2022-09-17T21:44:39.482Z,5.00
2022-09-17T21:50:01.390Z,6.00
2022-09-17T21:55:16.718Z,10.20
2022-09-17T22:00:23.189Z,9.20
2022-09-17T22:05:25.419Z,10.00
2022-09-17T22:10:28.520Z,8.60
2022-09-17T22:15:30.407Z,9.80
2022-09-17T22:20:44.927Z,9.20
2022-09-17T22:25:49.295Z,9.20
2022-09-17T22:30:54.112Z,10.30
2022-09-17T22:36:08.521Z,9.60
2022-09-17T22:41:16.018Z,9.10
2022-09-17T22:51:24.301Z,7.80
2022-09-17T22:56:28.134Z,8.50
2022-09-17T23:01:33.870Z,9.20
2022-09-17T23:06:38.340Z,8.00
2022-09-17T23:11:48.883Z,8.60
2022-09-17T23:17:14.369Z,7.00
2022-09-17T23:22:23.296Z,6.30
2022-09-17T23:27:25.132Z,8.30
2022-09-17T23:32:27.054Z,7.30
2022-09-17T23:37:28.791Z,6.40
2022-09-17T23:42:35.802Z,6.40
2022-09-17T23:47:37.469Z,6.50
2022-09-17T23:52:39.357Z,5.90
2022-09-17T23:57:41.211Z,6.50
